Time;durP1;ratioP1;P1;durP2;ratioP2;P2;SDS_P1;SDS_P2;PMS_P1;PMS_P2;Temp;Humidity;BMP_temperature;BMP_pressure;BME280_temperature;BME280_humidity;BME280_pressure;Samples;Min_cycle;Max_cycle;Signal;HPM_P1;HPM_P2
2022/10/09 00:00:05;;;;;;;7.97;1.10;;;8.70;76.80;;;;;;4102290;28;20442;-84
2022/10/09 00:02:05;;;;;;;3.90;0.73;;;8.80;76.90;;;;;;4102326;28;20437;-84
2022/10/09 00:04:06;;;;;;;3.78;0.60;;;8.80;76.70;;;;;;4102585;28;20031;-84
2022/10/09 00:06:10;;;;;;;9.05;1.20;;;8.90;76.80;;;;;;4101194;28;20578;-84
2022/10/09 00:08:11;;;;;;;5.90;0.80;;;8.70;76.50;;;;;;4105781;28;20064;-82
2022/10/09 00:10:11;;;;;;;4.55;0.80;;;8.80;76.60;;;;;;4103584;28;20034;-83
2022/10/09 00:12:12;;;;;;;7.45;0.98;;;8.80;76.50;;;;;;4101680;28;20039;-83
2022/10/09 00:14:13;;;;;;;3.78;0.70;;;8.80;76.40;;;;;;4119242;28;20063;-84
2022/10/09 00:16:16;;;;;;;7.32;0.80;;;8.70;76.30;;;;;;4102828;28;20035;-83
2022/10/09 00:18:17;;;;;;;5.30;0.60;;;8.70;76.30;;;;;;4103947;28;20038;-84
2022/10/09 00:20:18;;;;;;;2.47;0.50;;;8.70;76.20;;;;;;4102286;28;20106;-82
2022/10/09 00:22:18;;;;;;;4.43;0.50;;;8.80;76.20;;;;;;4103731;28;20031;-83
2022/10/09 00:24:19;;;;;;;4.75;0.88;;;8.70;76.10;;;;;;4101389;28;20491;-82
2022/10/09 00:26:21;;;;;;;7.82;0.90;;;8.70;76.10;;;;;;4102727;28;20432;-83
2022/10/09 00:28:23;;;;;;;4.25;0.90;;;8.70;76.10;;;;;;4118182;28;20081;-83
2022/10/09 00:30:24;;;;;;;10.50;1.27;;;8.70;76.00;;;;;;4104030;28;20034;-83
2022/10/09 00:32:25;;;;;;;4.00;1.42;;;8.80;75.90;;;;;;4086476;28;20032;-84
2022/10/09 00:34:25;;;;;;;10.05;1.85;;;8.70;75.70;;;;;;4106267;28;20873;-83
2022/10/09 00:36:26;;;;;;;4.40;1.20;;;8.60;75.70;;;;;;4096193;28;20641;-83
2022/10/09 00:38:27;;;;;;;7.15;1.50;;;8.60;75.70;;;;;;4109043;28;20525;-84
2022/10/09 00:40:28;;;;;;;4.28;1.00;;;8.60;75.70;;;;;;4104309;28;20045;-83
2022/10/09 00:42:40;;;;;;;7.97;0.88;;;8.50;75.50;;;;;;4088836;28;20765;-82
2022/10/09 00:45:02;;;;;;;5.63;0.95;;;8.50;75.50;;;;;;4105613;28;21915;-83
2022/10/09 00:47:29;;;;;;;5.50;0.80;;;8.50;75.50;;;;;;4119334;28;20038;-84
2022/10/09 00:49:53;;;;;;;6.75;1.00;;;8.50;75.60;;;;;;4109378;28;20147;-82
2022/10/09 00:52:15;;;;;;;7.28;0.93;;;8.40;75.60;;;;;;4104895;28;20123;-83
2022/10/09 00:54:39;;;;;;;4.90;0.80;;;8.40;76.40;;;;;;4103667;28;20103;-83
2022/10/09 00:57:00;;;;;;;7.97;1.70;;;8.40;75.70;;;;;;4105461;28;20154;-85
2022/10/09 00:59:22;;;;;;;9.05;1.45;;;8.40;75.80;;;;;;4105361;28;20027;-85
2022/10/09 01:01:42;;;;;;;9.18;0.90;;;8.50;76.00;;;;;;4106178;28;20023;-85
2022/10/09 01:04:03;;;;;;;7.80;0.80;;;8.40;75.90;;;;;;4107088;28;20081;-85
2022/10/09 01:07:00;;;;;;;11.75;1.10;;;8.30;75.80;;;;;;4102579;28;20166;-83
2022/10/09 01:09:40;;;;;;;14.68;1.35;;;8.30;76.00;;;;;;4120080;28;20033;-83
2022/10/09 01:12:09;;;;;;;9.25;0.90;;;8.30;76.00;;;;;;4104177;28;20041;-83
2022/10/09 01:14:43;;;;;;;6.97;1.00;;;8.20;75.80;;;;;;4107010;28;20037;-84
2022/10/09 01:17:23;;;;;;;7.85;1.25;;;8.20;75.90;;;;;;4105301;28;20042;-85
2022/10/09 01:20:00;;;;;;;6.55;1.00;;;8.20;76.00;;;;;;4120654;28;20042;-84
2022/10/09 01:22:59;;;;;;;9.40;1.02;;;8.20;76.10;;;;;;4108682;28;20039;-83
2022/10/09 01:25:48;;;;;;;7.43;1.00;;;8.20;76.00;;;;;;4104590;28;20158;-83
2022/10/09 01:28:10;;;;;;;4.78;1.00;;;8.20;76.00;;;;;;4104915;28;20038;-83
2022/10/09 01:30:12;;;;;;;6.90;0.80;;;8.10;75.90;;;;;;4124064;28;20049;-83
2022/10/09 01:32:20;;;;;;;9.30;1.00;;;8.10;75.90;;;;;;4104424;28;20035;-83
2022/10/09 01:34:22;;;;;;;4.25;0.70;;;8.10;76.00;;;;;;4100816;28;20035;-84
2022/10/09 01:36:24;;;;;;;9.32;1.15;;;8.10;76.10;;;;;;4108201;28;20030;-83
2022/10/09 01:38:26;;;;;;;9.63;1.45;;;8.10;76.10;;;;;;4105324;28;20482;-83
2022/10/09 01:40:28;;;;;;;5.25;1.20;;;8.00;76.20;;;;;;4106617;28;20062;-83
2022/10/09 01:42:30;;;;;;;8.45;1.08;;;8.00;76.10;;;;;;4107270;28;20038;-83
2022/10/09 01:44:32;;;;;;;8.23;0.90;;;8.00;76.00;;;;;;4105527;28;20031;-83
2022/10/09 01:46:32;;;;;;;4.93;0.73;;;8.00;76.10;;;;;;4101558;28;20031;-81
2022/10/09 01:48:34;;;;;;;6.70;1.65;;;8.00;76.10;;;;;;4108814;28;20053;-83
2022/10/09 01:50:39;;;;;;;6.20;0.80;;;8.00;76.20;;;;;;4109227;28;20098;-82
2022/10/09 01:52:56;;;;;;;4.95;0.88;;;8.00;76.10;;;;;;4109795;28;20022;-83
2022/10/09 01:55:07;;;;;;;8.35;1.05;;;8.00;76.20;;;;;;4105660;28;20396;-82
2022/10/09 01:57:11;;;;;;;7.43;1.02;;;7.90;76.10;;;;;;4104100;28;20030;-83
2022/10/09 01:59:15;;;;;;;8.20;1.33;;;7.90;76.10;;;;;;4107901;28;20034;-86
2022/10/09 02:01:32;;;;;;;5.95;1.23;;;7.90;76.10;;;;;;4105224;28;20133;-86
2022/10/09 02:03:37;;;;;;;10.63;1.30;;;7.90;76.10;;;;;;4108273;28;20028;-83
2022/10/09 02:05:41;;;;;;;7.32;1.00;;;7.90;76.10;;;;;;4119791;28;20034;-82
2022/10/09 02:07:42;;;;;;;10.75;1.45;;;7.90;76.00;;;;;;4107613;28;20062;-83
2022/10/09 02:09:43;;;;;;;6.32;0.95;;;7.90;76.00;;;;;;4109936;28;20487;-84
2022/10/09 02:11:50;;;;;;;3.47;0.98;;;7.80;75.80;;;;;;4103928;28;20062;-82
2022/10/09 02:13:51;;;;;;;4.40;0.90;;;7.90;76.00;;;;;;4106580;28;20064;-83
2022/10/09 02:16:18;;;;;;;6.07;0.90;;;7.80;75.80;;;;;;4103152;28;20138;-83
2022/10/09 02:18:29;;;;;;;9.65;1.27;;;7.80;75.80;;;;;;4108048;28;20058;-84
2022/10/09 02:20:33;;;;;;;3.95;0.90;;;7.80;75.90;;;;;;4108482;28;20027;-83
2022/10/09 02:22:35;;;;;;;3.38;0.93;;;7.70;75.80;;;;;;4105985;28;20518;-84
2022/10/09 02:24:38;;;;;;;10.77;1.83;;;7.80;75.90;;;;;;4122028;28;20062;-83
2022/10/09 02:26:39;;;;;;;3.30;0.87;;;7.70;75.80;;;;;;4108153;28;20030;-84
2022/10/09 02:28:41;;;;;;;6.43;0.85;;;7.70;75.90;;;;;;4107308;28;20027;-84
2022/10/09 02:31:21;;;;;;;5.22;0.65;;;7.60;75.90;;;;;;4103374;28;20051;-85
2022/10/09 02:33:34;;;;;;;7.28;1.35;;;7.60;76.00;;;;;;4118588;28;20076;-85
2022/10/09 02:35:36;;;;;;;6.68;1.45;;;7.60;75.90;;;;;;4103919;28;20031;-84
2022/10/09 02:37:37;;;;;;;8.98;0.85;;;7.60;75.90;;;;;;4119872;28;20034;-84
2022/10/09 02:39:38;;;;;;;6.75;0.93;;;7.60;76.00;;;;;;4103622;28;20047;-84
2022/10/09 02:41:38;;;;;;;6.85;0.93;;;7.60;76.00;;;;;;4090544;28;20271;-84
2022/10/09 02:43:39;;;;;;;9.73;0.82;;;7.60;76.00;;;;;;4104498;28;20034;-84
2022/10/09 02:45:40;;;;;;;5.28;0.95;;;7.50;76.00;;;;;;4101965;28;20059;-83
2022/10/09 02:47:40;;;;;;;6.70;0.70;;;7.50;76.00;;;;;;4102411;28;20038;-84
2022/10/09 02:49:41;;;;;;;4.47;0.93;;;7.50;76.10;;;;;;4104634;28;20026;-84
2022/10/09 02:51:42;;;;;;;6.20;1.15;;;7.60;76.10;;;;;;4120907;28;20068;-84
2022/10/09 02:53:43;;;;;;;10.02;1.23;;;7.60;76.20;;;;;;4113594;28;20525;-84
2022/10/09 02:55:43;;;;;;;8.13;0.90;;;7.40;76.10;;;;;;4100044;28;20482;-84
2022/10/09 02:57:44;;;;;;;8.35;1.15;;;7.50;76.20;;;;;;4109342;28;20085;-85
2022/10/09 02:59:45;;;;;;;10.90;1.20;;;7.50;76.50;;;;;;4121555;28;20499;-85
2022/10/09 03:01:45;;;;;;;17.50;1.83;;;7.40;76.40;;;;;;4105780;28;20541;-85
2022/10/09 03:03:46;;;;;;;6.95;1.30;;;7.60;76.60;;;;;;4092430;28;20027;-85
2022/10/09 03:05:47;;;;;;;6.70;1.45;;;7.40;76.40;;;;;;4106055;28;20042;-85
2022/10/09 03:07:51;;;;;;;7.47;1.35;;;7.40;76.50;;;;;;4105406;28;20131;-83
2022/10/09 03:09:53;;;;;;;5.57;1.02;;;7.40;76.50;;;;;;4110836;28;20339;-85
2022/10/09 03:11:57;;;;;;;7.05;1.38;;;7.40;76.50;;;;;;4106130;28;20042;-83
2022/10/09 03:13:57;;;;;;;9.57;1.52;;;7.40;77.40;;;;;;4105650;28;20045;-85
2022/10/09 03:16:03;;;;;;;8.30;1.60;;;7.40;76.60;;;;;;4108320;28;20037;-83
2022/10/09 03:18:04;;;;;;;9.23;1.15;;;7.40;76.60;;;;;;4106909;28;20058;-84
2022/10/09 03:20:10;;;;;;;4.90;1.00;;;7.40;76.60;;;;;;4109540;28;20030;-84
2022/10/09 03:22:12;;;;;;;6.85;0.80;;;7.50;76.70;;;;;;4120794;28;20019;-84
2022/10/09 03:24:13;;;;;;;10.38;1.30;;;7.40;76.60;;;;;;4105637;28;20578;-84
2022/10/09 03:26:16;;;;;;;4.85;0.98;;;7.30;76.50;;;;;;4107312;28;20064;-85
2022/10/09 03:28:16;;;;;;;5.78;0.98;;;7.30;76.60;;;;;;4102808;28;20043;-85
2022/10/09 03:30:17;;;;;;;5.20;0.88;;;7.30;76.60;;;;;;4090221;28;20063;-85
2022/10/09 03:32:18;;;;;;;8.10;0.82;;;7.30;76.60;;;;;;4120260;28;20089;-84
2022/10/09 03:34:19;;;;;;;9.02;1.00;;;7.30;76.70;;;;;;4095641;28;20027;-84
2022/10/09 03:36:19;;;;;;;12.43;1.42;;;7.30;76.80;;;;;;4103581;28;20041;-84
2022/10/09 03:38:20;;;;;;;9.32;1.13;;;7.30;76.80;;;;;;4107793;28;20045;-84
2022/10/09 03:40:20;;;;;;;8.52;1.30;;;7.30;76.90;;;;;;4100204;28;20125;-85
2022/10/09 03:42:21;;;;;;;17.98;1.40;;;7.40;77.00;;;;;;4106399;28;20104;-85
2022/10/09 03:44:22;;;;;;;7.13;1.05;;;7.20;77.10;;;;;;4097754;28;20031;-84
2022/10/09 03:46:23;;;;;;;7.60;1.33;;;7.30;77.00;;;;;;4085309;28;20030;-83
2022/10/09 03:48:24;;;;;;;5.85;0.85;;;7.30;77.10;;;;;;4102212;28;20061;-83
2022/10/09 03:50:25;;;;;;;6.95;1.02;;;7.20;77.10;;;;;;4098833;28;20042;-84
2022/10/09 03:52:26;;;;;;;8.18;1.48;;;7.20;77.10;;;;;;4095059;28;20495;-85
2022/10/09 03:54:26;;;;;;;3.95;0.90;;;7.30;77.30;;;;;;4099936;28;21949;-85
2022/10/09 03:56:27;;;;;;;4.60;1.00;;;7.20;77.20;;;;;;4086649;28;20102;-83
2022/10/09 03:58:28;;;;;;;4.93;0.73;;;7.20;77.20;;;;;;4104462;28;20031;-83
2022/10/09 04:00:29;;;;;;;4.00;0.80;;;7.30;77.30;;;;;;4102101;28;20586;-83
2022/10/09 04:02:32;;;;;;;4.53;0.82;;;7.20;77.20;;;;;;4104034;28;20023;-83
2022/10/09 04:04:33;;;;;;;10.43;1.00;;;7.20;77.20;;;;;;4132592;28;20038;-84
2022/10/09 04:06:35;;;;;;;4.57;0.73;;;7.20;77.20;;;;;;4104519;28;20030;-83
2022/10/09 04:08:38;;;;;;;3.28;0.80;;;7.20;77.10;;;;;;4102666;28;20579;-83
2022/10/09 04:10:42;;;;;;;5.60;0.80;;;7.20;77.10;;;;;;4116057;28;20053;-82
2022/10/09 04:13:02;;;;;;;8.30;0.88;;;7.20;76.90;;;;;;4102768;28;20063;-83
2022/10/09 04:15:23;;;;;;;4.53;0.90;;;7.20;76.90;;;;;;4100575;28;20058;-83
2022/10/09 04:17:43;;;;;;;5.85;0.50;;;7.20;76.80;;;;;;4099802;28;20034;-84
2022/10/09 04:20:04;;;;;;;4.80;0.75;;;7.10;76.80;;;;;;4099919;28;20088;-83
2022/10/09 04:22:25;;;;;;;7.43;1.27;;;7.20;76.90;;;;;;4102326;28;20041;-83
2022/10/09 04:24:45;;;;;;;5.90;0.90;;;7.10;76.80;;;;;;4101236;28;20046;-83
2022/10/09 04:27:06;;;;;;;8.07;1.02;;;7.10;76.70;;;;;;4108441;28;20123;-83
2022/10/09 04:29:27;;;;;;;5.82;1.35;;;7.10;76.70;;;;;;4106826;28;20118;-83
2022/10/09 04:31:47;;;;;;;5.35;0.80;;;7.10;76.70;;;;;;4109841;28;20041;-82
2022/10/09 04:34:08;;;;;;;8.10;1.15;;;7.10;76.80;;;;;;4105863;28;20578;-82
2022/10/09 04:36:27;;;;;;;3.83;0.60;;;7.20;76.90;;;;;;4104650;28;20545;-81
2022/10/09 04:38:46;;;;;;;4.95;0.52;;;7.10;76.80;;;;;;4105813;28;20081;-83
2022/10/09 04:41:07;;;;;;;5.40;0.70;;;7.00;76.90;;;;;;4105399;28;20093;-81
2022/10/09 04:43:28;;;;;;;4.88;0.95;;;7.00;76.80;;;;;;4105241;28;20053;-83
2022/10/09 04:45:49;;;;;;;8.48;1.20;;;7.00;76.90;;;;;;4106764;28;20422;-82
2022/10/09 04:48:10;;;;;;;9.70;1.20;;;7.00;76.90;;;;;;4103172;28;20502;-84
2022/10/09 04:50:30;;;;;;;9.07;1.00;;;7.00;77.00;;;;;;4102375;28;20033;-83
2022/10/09 04:52:51;;;;;;;11.75;1.02;;;7.00;77.10;;;;;;4106724;28;20041;-83
2022/10/09 04:55:12;;;;;;;6.80;1.02;;;7.00;77.20;;;;;;4109540;28;20027;-83
2022/10/09 04:57:32;;;;;;;5.53;0.93;;;7.00;77.30;;;;;;4104032;28;20058;-83
2022/10/09 04:59:53;;;;;;;6.85;1.08;;;7.00;77.40;;;;;;4102555;28;20030;-84
2022/10/09 05:02:14;;;;;;;6.53;0.70;;;7.10;77.40;;;;;;4107339;28;20499;-84
2022/10/09 05:04:34;;;;;;;8.48;0.80;;;7.00;77.40;;;;;;4108842;28;20178;-82
2022/10/09 05:06:55;;;;;;;10.73;1.10;;;7.00;77.40;;;;;;4106456;28;20471;-83
2022/10/09 05:09:16;;;;;;;6.22;0.90;;;7.00;77.40;;;;;;4108440;28;20031;-83
2022/10/09 05:11:36;;;;;;;2.50;0.77;;;7.00;77.40;;;;;;4108266;28;20039;-83
2022/10/09 05:13:57;;;;;;;8.75;1.50;;;7.00;77.30;;;;;;4105506;28;20027;-84
2022/10/09 05:16:21;;;;;;;4.93;1.10;;;7.00;77.30;;;;;;4107587;28;20399;-83
2022/10/09 05:18:43;;;;;;;2.58;0.77;;;7.00;77.30;;;;;;4116225;28;20049;-82
2022/10/09 05:21:05;;;;;;;8.23;0.90;;;7.00;77.20;;;;;;4107695;28;20047;-83
2022/10/09 05:23:26;;;;;;;3.50;0.90;;;6.90;77.10;;;;;;4103138;28;20034;-83
2022/10/09 05:26:01;;;;;;;6.82;1.23;;;6.90;77.00;;;;;;4102162;28;20027;-83
2022/10/09 05:28:22;;;;;;;6.30;1.05;;;6.90;77.00;;;;;;4106315;28;20030;-82
2022/10/09 05:30:42;;;;;;;4.18;0.73;;;7.00;77.00;;;;;;4104976;28;20027;-83
2022/10/09 05:33:03;;;;;;;6.32;0.85;;;6.90;77.70;;;;;;4104632;28;20023;-82
2022/10/09 05:35:23;;;;;;;3.92;0.73;;;6.90;77.00;;;;;;4103512;28;20034;-82
2022/10/09 05:37:44;;;;;;;4.30;1.00;;;6.90;77.00;;;;;;4106871;28;20069;-83
2022/10/09 05:40:05;;;;;;;3.67;0.70;;;6.90;77.00;;;;;;4104207;28;20034;-83
2022/10/09 05:42:26;;;;;;;6.50;1.25;;;6.80;77.00;;;;;;4100734;28;20027;-83
2022/10/09 05:44:47;;;;;;;4.22;1.10;;;6.80;77.00;;;;;;4112718;28;20030;-82
2022/10/09 05:47:07;;;;;;;4.90;0.88;;;6.80;77.10;;;;;;4107167;28;20027;-82
2022/10/09 05:49:28;;;;;;;6.00;1.17;;;6.80;77.10;;;;;;4109089;28;20039;-83
2022/10/09 05:51:48;;;;;;;9.65;1.17;;;6.80;77.10;;;;;;4105382;28;20940;-82
2022/10/09 05:54:13;;;;;;;8.38;0.93;;;6.80;77.10;;;;;;4104551;28;20210;-83
2022/10/09 05:56:37;;;;;;;7.75;0.75;;;6.80;77.20;;;;;;4103519;28;20031;-82
2022/10/09 05:59:00;;;;;;;7.63;1.20;;;7.00;77.50;;;;;;4103357;28;20035;-84
2022/10/09 06:01:22;;;;;;;6.27;0.97;;;6.80;77.50;;;;;;4105843;28;20534;-83
2022/10/09 06:03:50;;;;;;;4.15;0.57;;;6.80;77.40;;;;;;4102854;28;20357;-83
2022/10/09 06:06:11;;;;;;;6.30;1.00;;;6.80;77.60;;;;;;4104022;28;20041;-83
2022/10/09 06:08:33;;;;;;;5.50;0.95;;;6.80;77.60;;;;;;4105065;28;20049;-83
2022/10/09 06:10:53;;;;;;;6.13;1.20;;;6.80;77.70;;;;;;4102058;28;20577;-83
2022/10/09 06:12:55;;;;;;;7.25;1.30;;;6.90;77.90;;;;;;4105069;28;20035;-83
2022/10/09 06:14:56;;;;;;;6.60;1.00;;;6.80;77.90;;;;;;4103633;28;20031;-82
2022/10/09 06:16:58;;;;;;;6.68;1.10;;;6.90;78.00;;;;;;4100438;28;20026;-83
2022/10/09 06:18:59;;;;;;;12.82;1.55;;;6.90;78.20;;;;;;4100235;28;20042;-84
2022/10/09 06:21:01;;;;;;;9.48;0.90;;;6.80;78.30;;;;;;4101380;28;20049;-84
2022/10/09 06:23:02;;;;;;;9.70;1.23;;;6.90;78.40;;;;;;4099822;28;20727;-84
2022/10/09 06:25:02;;;;;;;5.03;0.60;;;6.90;78.50;;;;;;4099511;28;20094;-83
2022/10/09 06:27:03;;;;;;;4.50;0.70;;;6.90;78.60;;;;;;4117655;28;20160;-85
2022/10/09 06:29:04;;;;;;;4.10;0.80;;;7.00;78.80;;;;;;4093070;28;20035;-85
2022/10/09 06:31:08;;;;;;;7.70;0.60;;;7.00;78.80;;;;;;4100778;28;20034;-85
2022/10/09 06:33:30;;;;;;;5.00;0.88;;;7.00;78.80;;;;;;4111863;28;20034;-84
2022/10/09 06:35:51;;;;;;;2.22;0.80;;;7.10;78.90;;;;;;4098245;28;20039;-84
2022/10/09 06:38:14;;;;;;;9.48;1.25;;;7.10;78.90;;;;;;4105920;28;20038;-85
2022/10/09 06:40:36;;;;;;;7.65;1.13;;;7.10;78.90;;;;;;4095667;28;20062;-84
2022/10/09 06:42:56;;;;;;;5.88;0.98;;;7.20;79.10;;;;;;4096630;28;21192;-85
2022/10/09 06:45:17;;;;;;;3.70;1.02;;;7.20;79.10;;;;;;4099836;28;20035;-85
2022/10/09 06:47:38;;;;;;;4.68;1.10;;;7.30;79.10;;;;;;4092371;28;20038;-84
2022/10/09 06:49:58;;;;;;;11.05;1.45;;;7.30;79.20;;;;;;4098226;28;20169;-85
2022/10/09 06:52:19;;;;;;;6.60;1.55;;;7.30;79.30;;;;;;4098608;28;20030;-84
2022/10/09 06:54:40;;;;;;;7.55;1.17;;;7.40;79.50;;;;;;4102884;28;20038;-84
2022/10/09 06:56:49;;;;;;;6.18;1.00;;;7.40;79.50;;;;;;4103026;28;20118;-84
2022/10/09 06:59:10;;;;;;;6.32;1.20;;;7.40;79.70;;;;;;4098940;28;20388;-86
2022/10/09 07:01:32;;;;;;;5.85;1.02;;;7.50;79.90;;;;;;4102032;28;20081;-85
2022/10/09 07:03:55;;;;;;;8.68;1.70;;;7.70;80.10;;;;;;4101316;28;20522;-85
2022/10/09 07:06:22;;;;;;;14.23;1.85;;;7.60;80.10;;;;;;4103056;28;20026;-85
2022/10/09 07:08:45;;;;;;;9.77;1.00;;;7.70;80.20;;;;;;4099983;28;20135;-83
2022/10/09 07:11:14;;;;;;;9.27;1.58;;;7.70;80.30;;;;;;4103914;28;20041;-85
2022/10/09 07:13:35;;;;;;;9.43;1.20;;;7.80;80.60;;;;;;4104552;28;20031;-85
2022/10/09 07:15:56;;;;;;;4.72;0.90;;;7.80;80.50;;;;;;4104542;28;20034;-85
2022/10/09 07:18:17;;;;;;;8.88;1.42;;;7.90;80.60;;;;;;4100801;28;20487;-85
2022/10/09 07:20:37;;;;;;;11.13;1.48;;;7.90;80.60;;;;;;4106670;28;20102;-83
2022/10/09 07:22:58;;;;;;;7.60;1.23;;;8.00;80.90;;;;;;4107264;28;20077;-85
2022/10/09 07:25:19;;;;;;;9.35;1.02;;;8.20;81.20;;;;;;4111294;28;20097;-83
2022/10/09 07:27:40;;;;;;;8.70;1.35;;;8.10;81.10;;;;;;4121920;28;20031;-84
2022/10/09 07:30:01;;;;;;;12.65;1.40;;;8.20;81.40;;;;;;4116041;28;20045;-85
2022/10/09 07:32:22;;;;;;;7.75;1.13;;;8.30;81.30;;;;;;4107849;28;20081;-86
2022/10/09 07:34:42;;;;;;;8.05;1.60;;;8.40;81.30;;;;;;4106744;28;20581;-84
2022/10/09 07:37:03;;;;;;;9.63;1.80;;;8.40;81.40;;;;;;4096972;28;20042;-84
2022/10/09 07:39:24;;;;;;;11.48;1.77;;;8.50;81.60;;;;;;4103303;28;20089;-84
2022/10/09 07:41:46;;;;;;;10.80;1.58;;;8.50;81.50;;;;;;4104006;28;20039;-85
2022/10/09 07:44:07;;;;;;;10.98;2.20;;;8.60;82.30;;;;;;4105015;28;20049;-85
2022/10/09 07:46:28;;;;;;;10.23;1.75;;;8.80;81.90;;;;;;4106419;28;20085;-86
2022/10/09 07:48:49;;;;;;;10.02;1.80;;;8.80;82.00;;;;;;4102884;28;20027;-84
2022/10/09 07:51:18;;;;;;;12.65;1.73;;;8.80;82.00;;;;;;4103437;28;20114;-85
2022/10/09 07:53:40;;;;;;;4.78;1.60;;;8.90;82.20;;;;;;4116971;28;20139;-85
2022/10/09 07:56:03;;;;;;;9.07;1.52;;;9.00;82.00;;;;;;4109023;28;20031;-85
2022/10/09 07:58:24;;;;;;;8.55;1.48;;;9.10;82.10;;;;;;4105031;28;20129;-86
2022/10/09 08:00:44;;;;;;;5.30;1.42;;;9.10;82.10;;;;;;4107180;28;20184;-85
2022/10/09 08:03:05;;;;;;;11.40;1.75;;;9.20;82.20;;;;;;4106088;28;20097;-85
2022/10/09 08:05:26;;;;;;;11.00;1.98;;;9.30;83.20;;;;;;4109081;28;20507;-86
2022/10/09 08:07:46;;;;;;;7.45;1.40;;;9.50;82.80;;;;;;4105213;28;20137;-85
2022/10/09 08:10:07;;;;;;;10.10;2.40;;;9.40;82.60;;;;;;4110011;28;20043;-85
2022/10/09 08:12:28;;;;;;;6.38;1.23;;;9.50;82.80;;;;;;4109743;28;20034;-84
2022/10/09 08:14:48;;;;;;;6.57;1.80;;;9.60;82.80;;;;;;4102277;28;20126;-86
2022/10/09 08:17:09;;;;;;;10.38;1.85;;;9.70;82.90;;;;;;4101639;28;20145;-85
2022/10/09 08:19:30;;;;;;;11.05;2.00;;;9.70;82.60;;;;;;4116451;28;20117;-85
2022/10/09 08:21:50;;;;;;;11.10;2.30;;;9.80;82.60;;;;;;4097524;28;20843;-85
2022/10/09 08:24:12;;;;;;;7.78;1.67;;;9.90;82.80;;;;;;4102917;28;20031;-84
2022/10/09 08:26:32;;;;;;;11.93;1.98;;;10.00;82.60;;;;;;4099774;28;20065;-85
2022/10/09 08:28:56;;;;;;;7.45;1.80;;;10.00;82.40;;;;;;4107028;28;20087;-86
2022/10/09 08:31:17;;;;;;;13.55;2.08;;;10.20;82.60;;;;;;4105485;28;20046;-85
2022/10/09 08:33:38;;;;;;;6.38;1.58;;;10.20;82.60;;;;;;4095256;28;20591;-83
2022/10/09 08:36:06;;;;;;;11.00;1.95;;;10.30;82.80;;;;;;4099004;28;20099;-85
2022/10/09 08:38:27;;;;;;;18.55;2.33;;;10.30;82.70;;;;;;4108061;28;20591;-84
2022/10/09 08:40:56;;;;;;;7.15;2.00;;;10.50;82.70;;;;;;4105845;28;20022;-85
2022/10/09 08:43:26;;;;;;;10.57;2.15;;;10.50;82.90;;;;;;4098466;28;20039;-85
2022/10/09 08:45:46;;;;;;;12.30;2.13;;;10.60;83.10;;;;;;4098224;28;20049;-85
2022/10/09 08:48:13;;;;;;;9.93;2.15;;;10.60;83.00;;;;;;4105850;28;20045;-85
2022/10/09 08:50:37;;;;;;;8.48;2.28;;;10.70;83.00;;;;;;4105869;28;20033;-85
2022/10/09 08:53:25;;;;;;;14.82;2.33;;;10.80;83.20;;;;;;4102767;28;20057;-86
2022/10/09 08:55:49;;;;;;;14.23;2.17;;;10.90;83.30;;;;;;4102450;28;20343;-86
2022/10/09 08:58:14;;;;;;;8.63;2.03;;;11.00;83.20;;;;;;4109968;28;20077;-86
2022/10/09 09:01:03;;;;;;;14.73;2.42;;;11.20;83.30;;;;;;4102820;28;20086;-86
2022/10/09 09:03:41;;;;;;;15.90;2.25;;;11.20;83.30;;;;;;4110689;28;20054;-86
2022/10/09 09:06:33;;;;;;;20.98;4.10;;;11.40;83.60;;;;;;4107283;28;20049;-85
2022/10/09 09:09:07;;;;;;;20.63;3.45;;;11.40;83.50;;;;;;4097262;28;20926;-85
2022/10/09 09:11:36;;;;;;;;;;;11.50;83.30;;;;;;4118672;28;20128;-85
2022/10/09 09:14:34;;;;;;;15.38;2.10;;;11.60;84.30;;;;;;4108831;28;20424;-85
2022/10/09 09:17:12;;;;;;;12.38;2.30;;;11.70;83.20;;;;;;4106459;28;20041;-84
2022/10/09 09:19:41;;;;;;;11.60;2.30;;;11.70;82.80;;;;;;4106566;28;20049;-85
2022/10/09 09:22:01;;;;;;;10.05;1.83;;;11.90;82.90;;;;;;4107698;28;20516;-85
2022/10/09 09:24:38;;;;;;;12.57;2.30;;;11.90;82.80;;;;;;4104065;28;20542;-85
2022/10/09 09:27:02;;;;;;;13.30;2.28;;;11.90;82.70;;;;;;4102094;28;20078;-85
2022/10/09 09:29:23;;;;;;;10.30;2.22;;;12.00;83.40;;;;;;4105991;28;20770;-84
2022/10/09 09:31:44;;;;;;;12.43;2.38;;;12.20;82.70;;;;;;4105302;28;20076;-85
2022/10/09 09:34:13;;;;;;;12.52;1.77;;;12.30;82.80;;;;;;4104063;28;20034;-85
2022/10/09 09:36:46;;;;;;;9.70;2.28;;;12.30;82.70;;;;;;4106831;28;20077;-85
2022/10/09 09:39:08;;;;;;;9.88;1.90;;;12.40;82.50;;;;;;4108228;28;20097;-84
2022/10/09 09:41:28;;;;;;;6.28;1.65;;;12.40;82.50;;;;;;4109760;28;20546;-85
2022/10/09 09:43:47;;;;;;;14.82;1.85;;;12.50;82.30;;;;;;4099168;28;20039;-85
2022/10/09 09:46:20;;;;;;;12.65;1.70;;;12.60;82.30;;;;;;4102706;28;20079;-85
2022/10/09 09:48:42;;;;;;;12.18;1.77;;;12.70;82.20;;;;;;4106685;28;20081;-85
2022/10/09 09:51:24;;;;;;;15.63;2.30;;;12.80;82.30;;;;;;4109342;28;20037;-86
2022/10/09 09:53:47;;;;;;;8.93;1.58;;;12.90;82.10;;;;;;4106722;28;20041;-85
2022/10/09 09:56:08;;;;;;;9.48;1.73;;;13.00;81.80;;;;;;4098440;28;20058;-85
2022/10/09 09:58:38;;;;;;;10.27;1.40;;;13.10;81.40;;;;;;4108090;28;20078;-85
2022/10/09 10:01:02;;;;;;;9.80;1.55;;;13.10;81.00;;;;;;4124246;28;20037;-85
2022/10/09 10:03:22;;;;;;;7.82;1.30;;;13.20;81.00;;;;;;4106833;28;20177;-84
2022/10/09 10:05:43;;;;;;;12.88;1.60;;;13.30;80.30;;;;;;4106272;28;20114;-84
2022/10/09 10:08:35;;;;;;;10.77;1.35;;;13.40;80.10;;;;;;4116654;28;20038;-85
2022/10/09 10:10:58;;;;;;;15.32;1.55;;;13.50;79.20;;;;;;4083636;28;20038;-84
2022/10/09 10:13:29;;;;;;;9.57;1.50;;;13.60;79.10;;;;;;4108082;28;20058;-85
2022/10/09 10:15:57;;;;;;;12.15;1.88;;;13.60;79.10;;;;;;4104068;28;20086;-85
2022/10/09 10:18:18;;;;;;;12.35;1.55;;;13.70;78.00;;;;;;4097575;28;20045;-84
2022/10/09 10:20:55;;;;;;;8.20;1.23;;;13.80;77.50;;;;;;4102798;28;20091;-84
2022/10/09 10:23:44;;;;;;;14.13;1.40;;;13.80;76.40;;;;;;4115999;28;20643;-85
2022/10/09 10:26:12;;;;;;;14.00;2.20;;;13.90;75.50;;;;;;4104664;28;20041;-84
2022/10/09 10:28:44;;;;;;;13.65;1.88;;;13.90;75.30;;;;;;4103008;28;20042;-84
2022/10/09 10:31:06;;;;;;;9.25;1.27;;;13.90;74.60;;;;;;4105175;28;20118;-85
2022/10/09 10:33:30;;;;;;;5.22;0.95;;;13.90;74.60;;;;;;4117127;28;20061;-84
2022/10/09 10:35:52;;;;;;;7.70;1.58;;;14.00;74.40;;;;;;4114864;28;20150;-84
2022/10/09 10:38:23;;;;;;;8.65;1.10;;;14.10;73.60;;;;;;4103217;28;20101;-84
2022/10/09 10:40:45;;;;;;;10.48;1.27;;;14.20;73.00;;;;;;4108804;28;20037;-84
2022/10/09 10:43:23;;;;;;;11.88;1.42;;;14.20;73.30;;;;;;4120076;28;20115;-84
2022/10/09 10:45:49;;;;;;;9.27;1.08;;;14.20;72.90;;;;;;4107519;28;20514;-85
2022/10/09 10:48:14;;;;;;;8.55;1.20;;;14.30;72.70;;;;;;4103373;28;20101;-85
2022/10/09 10:50:40;;;;;;;6.45;1.08;;;14.30;72.90;;;;;;4121413;28;20041;-84
2022/10/09 10:53:12;;;;;;;7.07;1.45;;;14.50;72.90;;;;;;4118800;28;20126;-85
2022/10/09 10:55:50;;;;;;;5.10;1.08;;;14.50;72.50;;;;;;4118684;28;20070;-84
2022/10/09 10:58:43;;;;;;;6.85;1.20;;;14.60;72.30;;;;;;4118987;28;20049;-84
2022/10/09 11:01:02;;;;;;;7.65;1.40;;;14.70;71.20;;;;;;4110860;28;20114;-85
2022/10/09 11:03:24;;;;;;;7.22;1.00;;;14.70;70.20;;;;;;4107835;28;20058;-84
2022/10/09 11:06:05;;;;;;;4.35;0.85;;;14.80;69.80;;;;;;4106693;28;20045;-85
2022/10/09 11:08:37;;;;;;;14.93;1.95;;;14.80;69.00;;;;;;4112919;28;20101;-84
2022/10/09 11:11:15;;;;;;;6.30;1.20;;;14.90;69.20;;;;;;4115864;28;20050;-84
2022/10/09 11:14:13;;;;;;;7.25;0.70;;;14.90;69.20;;;;;;4106523;28;20093;-84
2022/10/09 11:16:50;;;;;;;6.88;1.30;;;15.00;67.80;;;;;;4108108;28;20077;-85
2022/10/09 11:19:16;;;;;;;6.50;1.00;;;15.00;68.10;;;;;;4062897;28;1286454;-85
2022/10/09 11:21:52;;;;;;;7.82;1.30;;;15.10;68.20;;;;;;4109173;28;20037;-85
2022/10/09 11:24:26;;;;;;;12.07;1.30;;;15.10;67.10;;;;;;4109017;28;20122;-85
2022/10/09 11:27:03;;;;;;;10.70;0.95;;;15.10;67.30;;;;;;4105591;28;20111;-85
2022/10/09 11:29:30;;;;;;;14.15;1.30;;;15.20;64.90;;;;;;4096136;28;20165;-84
2022/10/09 11:32:19;;;;;;;6.97;0.90;;;15.20;65.40;;;;;;4099289;28;20046;-86
2022/10/09 11:34:49;;;;;;;7.10;1.15;;;15.20;64.30;;;;;;4103481;28;20060;-85
2022/10/09 11:37:17;;;;;;;7.80;0.98;;;15.30;64.60;;;;;;4096968;28;20054;-85
2022/10/09 11:39:41;;;;;;;6.68;0.95;;;15.30;64.60;;;;;;4098633;28;20051;-85
2022/10/09 11:42:01;;;;;;;6.30;0.82;;;15.30;62.90;;;;;;4109937;28;20038;-85
2022/10/09 11:44:45;;;;;;;11.80;1.38;;;15.30;62.50;;;;;;4116972;28;20041;-85
2022/10/09 11:47:27;;;;;;;7.20;1.17;;;15.30;62.30;;;;;;4104488;28;20174;-85
2022/10/09 11:50:02;;;;;;;12.18;1.13;;;15.30;62.10;;;;;;4106129;28;20518;-85
2022/10/09 11:52:29;;;;;;;4.55;0.60;;;15.30;60.90;;;;;;4097130;28;20059;-84
2022/10/09 11:54:48;;;;;;;8.52;0.85;;;15.40;61.30;;;;;;4101838;28;20081;-85
2022/10/09 11:57:08;;;;;;;6.45;0.88;;;15.30;61.40;;;;;;4101356;28;20042;-86
2022/10/09 11:59:34;;;;;;;5.60;0.93;;;15.30;61.40;;;;;;4101947;28;20061;-85
2022/10/09 12:01:55;;;;;;;10.55;1.20;;;15.40;61.00;;;;;;4110411;28;20038;-85